aviador You're here:

OIMQ Decoded Metar

KASHMAR in IRAN
Report Time2017-11-24 18:00:00
UTC Time2017-11-24 18:33:44
Flight Rules unknown UNKNOWN
Wind130° at 02 kt
W.Rank130° ranks 6
Current wind is below 130° avg. (7.2)
VisibilityN/A
Phenomena:N/A
Clouds:N/A
Expected CloudBase > 3,200 ft AGL from Temp-Dew spread
CeilingNone
Temp09°C
Dew Point01°C (58% RH)
AAT6.5°C
QNH1016 hPa
Raw Report
METAR OIMQ 241800Z AUTO 13002KT //// // ////// 09/01 Q1016=

Extra information for OIMQ:More info

Metar Taf Metar & Taf Last 4 Metars F.Rules Stats Wind Profile Meteogram Temp Stats Metar ALERT Operation Metar Decoded Social comments